Time;durP1;ratioP1;P1;durP2;ratioP2;P2;SDS_P1;SDS_P2;PMS_P1;PMS_P2;Temp;Humidity;BMP_temperature;BMP_pressure;BME280_temperature;BME280_humidity;BME280_pressure;Samples;Min_cycle;Max_cycle;Signal;HPM_P1;HPM_P2
2023/05/03 00:01:36;;;;;;;6.78;3.40;;;10.70;99.90;;;10.02;100.00;101771.31;4135064;28;20101;-71
2023/05/03 00:03:37;;;;;;;5.28;2.70;;;10.70;99.90;;;10.02;100.00;101776.59;4119907;28;20090;-71
2023/05/03 00:05:38;;;;;;;5.60;3.00;;;10.70;99.90;;;10.01;100.00;101771.44;4134973;28;20018;-71
2023/05/03 00:07:43;;;;;;;4.72;3.08;;;10.70;99.90;;;10.03;100.00;101774.78;4135140;28;20026;-71
2023/05/03 00:09:44;;;;;;;6.78;3.00;;;10.70;99.90;;;10.05;100.00;101772.84;4122887;28;20077;-71
2023/05/03 00:11:45;;;;;;;4.80;3.28;;;10.70;99.90;;;10.12;100.00;101767.91;4120317;28;20480;-71
2023/05/03 00:13:46;;;;;;;5.65;3.17;;;10.80;99.90;;;10.14;100.00;101768.66;4120073;28;20026;-71
2023/05/03 00:15:47;;;;;;;4.05;2.83;;;10.80;99.90;;;10.14;100.00;101758.09;4119716;28;20031;-71
2023/05/03 00:17:48;;;;;;;6.50;3.72;;;10.80;99.90;;;10.16;100.00;101756.16;4135011;28;20027;-71
2023/05/03 00:19:49;;;;;;;4.22;3.40;;;10.90;99.90;;;10.19;100.00;101759.38;4122009;28;20038;-71
2023/05/03 00:21:50;;;;;;;6.05;3.17;;;10.90;99.90;;;10.15;100.00;101754.50;4134917;28;20038;-71
2023/05/03 00:23:50;;;;;;;6.47;3.20;;;10.90;99.90;;;10.23;100.00;101763.44;4135951;28;20034;-71
2023/05/03 00:25:56;;;;;;;4.63;3.03;;;10.90;99.90;;;10.33;100.00;101767.00;4135972;28;20029;-71
2023/05/03 00:27:57;;;;;;;4.85;3.00;;;11.00;99.90;;;10.32;100.00;101759.19;4134914;28;20041;-71
2023/05/03 00:29:58;;;;;;;5.75;2.83;;;11.00;99.90;;;10.30;100.00;101750.59;4134463;28;20031;-72
2023/05/03 00:31:59;;;;;;;4.70;3.03;;;11.00;99.90;;;10.29;100.00;101754.19;4134874;28;20026;-71
2023/05/03 00:34:00;;;;;;;4.40;2.63;;;11.00;99.90;;;10.29;100.00;101762.09;4150968;28;20117;-71
2023/05/03 00:36:10;;;;;;;2.85;2.33;;;11.00;99.90;;;10.21;100.00;101751.34;4135782;28;20035;-71
2023/05/03 00:38:13;;;;;;;4.38;2.47;;;10.90;99.90;;;10.12;100.00;101741.56;4118681;28;20031;-71
2023/05/03 00:40:17;;;;;;;6.25;2.80;;;10.90;99.90;;;10.14;100.00;101755.47;4138052;28;20019;-71
2023/05/03 00:42:18;;;;;;;;;;;10.80;99.90;;;10.02;100.00;101746.75;4130191;28;20026;-71
2023/05/03 00:44:19;;;;;;;3.63;2.65;;;10.70;99.90;;;9.93;100.00;101745.72;4121903;28;19910;-71
2023/05/03 00:46:20;;;;;;;4.15;2.80;;;10.70;99.90;;;9.92;100.00;101748.47;4137377;28;20046;-71
2023/05/03 00:48:21;;;;;;;4.68;3.10;;;10.70;99.90;;;9.90;100.00;101740.69;4135955;28;20030;-71
2023/05/03 00:50:22;;;;;;;4.25;2.60;;;10.60;99.90;;;9.84;100.00;101738.56;4124093;28;20027;-71
2023/05/03 00:52:23;;;;;;;4.65;3.08;;;10.60;99.90;;;9.82;100.00;101740.50;4121799;28;20066;-71
2023/05/03 00:54:28;;;;;;;5.18;2.85;;;10.50;99.90;;;9.77;100.00;101742.66;4137910;28;20026;-71
2023/05/03 00:56:29;;;;;;;4.07;2.55;;;10.50;99.90;;;9.76;100.00;101735.75;4121663;28;20046;-70
2023/05/03 00:58:32;;;;;;;3.50;2.70;;;10.40;99.90;;;9.76;100.00;101733.13;4122754;28;20038;-71
2023/05/03 01:00:33;;;;;;;7.20;3.40;;;10.40;99.90;;;9.71;100.00;101716.81;4122706;28;20026;-71
2023/05/03 01:02:33;;;;;;;4.53;2.97;;;10.40;99.90;;;9.74;100.00;101732.38;4137705;28;20407;-71
2023/05/03 01:04:36;;;;;;;5.72;3.70;;;10.40;99.90;;;9.75;100.00;101726.16;4125005;28;20035;-71
2023/05/03 01:07:03;;;;;;;3.85;2.90;;;10.40;99.90;;;9.79;100.00;101726.75;4124623;28;20038;-71
2023/05/03 01:09:38;;;;;;;5.45;3.25;;;10.40;99.90;;;9.79;100.00;101718.84;4138848;28;20041;-71
2023/05/03 01:12:13;;;;;;;6.88;3.28;;;10.50;99.90;;;9.86;100.00;101725.25;4137483;28;20023;-71
2023/05/03 01:14:59;;;;;;;6.35;2.80;;;10.50;99.90;;;9.84;100.00;101722.75;4128817;28;20031;-71
2023/05/03 01:17:10;;;;;;;;;;;10.50;99.90;;;9.82;100.00;101713.31;4111784;28;20093;-71
2023/05/03 01:19:41;;;;;;;6.00;3.35;;;10.50;99.90;;;9.85;100.00;101713.91;4121392;28;19910;-71
2023/05/03 01:21:52;;;;;;;4.75;3.53;;;10.60;99.90;;;9.89;100.00;101715.31;4125540;28;20034;-71
2023/05/03 01:24:06;;;;;;;5.47;3.10;;;10.60;99.90;;;9.91;100.00;101729.22;4133678;28;20026;-71
2023/05/03 01:26:17;;;;;;;5.22;3.10;;;10.60;99.90;;;9.92;100.00;101722.94;4137306;28;20516;-71
2023/05/03 01:28:17;;;;;;;6.32;3.70;;;10.60;99.90;;;9.97;100.00;101715.47;4138596;28;20034;-71
2023/05/03 01:30:25;;;;;;;4.93;3.38;;;10.60;99.90;;;9.96;100.00;101716.47;4153180;28;20030;-71
2023/05/03 01:32:34;;;;;;;7.38;3.30;;;10.70;99.90;;;10.04;100.00;101710.53;4137472;28;20032;-71
2023/05/03 01:34:54;;;;;;;4.63;3.55;;;10.70;99.90;;;10.06;100.00;101713.06;4134609;28;20035;-71
2023/05/03 01:37:01;;;;;;;4.30;3.50;;;10.80;99.90;;;10.02;100.00;101696.66;4122277;28;20030;-71
2023/05/03 01:39:09;;;;;;;3.80;2.67;;;10.70;99.90;;;10.03;100.00;101704.44;4136787;28;20049;-70
2023/05/03 01:41:12;;;;;;;5.38;4.28;;;10.80;99.90;;;10.09;100.00;101712.81;4137026;28;20033;-71
2023/05/03 01:43:17;;;;;;;6.43;3.15;;;10.80;99.90;;;10.07;100.00;101706.81;4149640;28;20030;-71
2023/05/03 01:45:17;;;;;;;;;;;10.70;99.90;;;10.02;100.00;101692.25;4125574;28;20038;-71
2023/05/03 01:47:18;;;;;;;5.85;2.90;;;10.70;99.90;;;10.00;100.00;101699.41;4120271;28;19910;-71
2023/05/03 01:49:19;;;;;;;4.70;3.17;;;10.70;99.90;;;9.97;100.00;101699.69;4131986;28;20035;-71
2023/05/03 01:51:20;;;;;;;7.10;3.33;;;10.70;99.90;;;9.91;100.00;101702.84;4137095;28;20049;-71
2023/05/03 01:53:21;;;;;;;3.20;2.78;;;10.70;99.90;;;9.85;100.00;101697.25;4128608;28;20034;-71
2023/05/03 01:55:22;;;;;;;5.72;3.78;;;10.60;99.90;;;9.73;100.00;101691.22;4123606;28;20019;-71
2023/05/03 01:57:23;;;;;;;4.93;3.03;;;10.50;99.90;;;9.78;100.00;101694.28;4120935;28;20081;-70
2023/05/03 01:59:24;;;;;;;4.32;3.45;;;10.40;99.90;;;9.71;100.00;101679.94;4121703;28;20479;-71
2023/05/03 02:01:25;;;;;;;7.05;3.40;;;10.40;99.90;;;9.66;100.00;101683.91;4121902;28;20085;-71
2023/05/03 02:03:25;;;;;;;7.90;4.50;;;10.40;99.90;;;9.68;100.00;101684.63;4120292;28;20078;-71
2023/05/03 02:05:26;;;;;;;5.65;3.15;;;10.40;99.90;;;9.65;100.00;101690.16;4127448;28;20103;-71
2023/05/03 02:07:27;;;;;;;5.65;3.33;;;10.40;99.90;;;9.56;100.00;101685.66;4129656;28;20019;-71
2023/05/03 02:09:28;;;;;;;4.22;3.15;;;10.30;99.90;;;9.57;100.00;101695.22;4136720;28;20034;-71
2023/05/03 02:11:29;;;;;;;5.22;3.35;;;10.30;99.90;;;9.43;100.00;101678.78;4152699;28;20022;-71
2023/05/03 02:13:30;;;;;;;4.72;3.42;;;10.30;99.90;;;9.48;100.00;101694.19;4133603;28;20031;-71
2023/05/03 02:15:31;;;;;;;5.78;4.05;;;10.20;99.90;;;9.47;100.00;101694.31;4120142;28;20089;-70
2023/05/03 02:17:33;;;;;;;4.82;3.42;;;10.20;99.90;;;9.40;100.00;101689.56;4121626;28;20035;-71
2023/05/03 02:19:33;;;;;;;5.50;3.78;;;10.10;99.90;;;9.34;100.00;101682.16;4120238;28;20027;-70
2023/05/03 02:21:36;;;;;;;5.63;3.20;;;10.10;99.90;;;9.22;100.00;101658.63;4136702;28;20073;-70
2023/05/03 02:23:37;;;;;;;6.55;3.72;;;10.00;99.90;;;9.33;100.00;101679.63;4123684;28;20035;-71
2023/05/03 02:25:39;;;;;;;4.97;3.88;;;10.00;99.90;;;9.31;100.00;101681.56;4120245;28;20483;-71
2023/05/03 02:27:40;;;;;;;6.28;3.72;;;10.00;99.90;;;9.27;100.00;101680.13;4136170;28;20034;-71
2023/05/03 02:29:41;;;;;;;5.75;4.28;;;10.00;99.90;;;9.25;100.00;101685.53;4121478;28;20442;-71
2023/05/03 02:31:42;;;;;;;6.30;3.75;;;10.00;99.90;;;9.20;100.00;101679.78;4121443;28;20015;-71
2023/05/03 02:33:43;;;;;;;7.82;4.13;;;9.90;99.90;;;9.15;100.00;101673.22;4130089;28;20034;-71
2023/05/03 02:35:44;;;;;;;5.25;3.60;;;9.90;99.90;;;9.14;100.00;101677.66;4136176;28;20049;-71
2023/05/03 02:37:45;;;;;;;5.55;4.30;;;9.90;99.90;;;9.16;100.00;101673.13;4136352;28;20066;-70
2023/05/03 02:39:45;;;;;;;4.88;3.63;;;9.90;99.90;;;9.16;100.00;101678.38;4130808;28;20027;-71
2023/05/03 02:41:46;;;;;;;4.93;3.67;;;9.90;99.90;;;9.10;100.00;101678.03;4136134;28;20038;-70
2023/05/03 02:43:47;;;;;;;6.93;4.07;;;9.90;99.90;;;9.16;100.00;101682.81;4133195;28;20093;-70
2023/05/03 02:45:48;;;;;;;6.35;4.38;;;9.90;99.90;;;9.06;100.00;101666.06;4119761;28;20094;-71
2023/05/03 02:47:49;;;;;;;6.75;5.35;;;9.80;99.90;;;9.07;100.00;101667.75;4130621;28;20054;-71
2023/05/03 02:49:50;;;;;;;7.55;4.43;;;9.90;99.90;;;9.03;100.00;101659.25;4136092;28;20556;-71
2023/05/03 02:51:51;;;;;;;9.85;5.05;;;9.90;99.90;;;9.12;100.00;101670.84;4120972;28;20027;-71
2023/05/03 02:53:52;;;;;;;9.02;4.82;;;9.90;99.90;;;9.12;100.00;101671.69;4136064;28;20030;-71
2023/05/03 02:55:53;;;;;;;6.25;4.35;;;9.90;99.90;;;9.03;100.00;101666.31;4135908;28;20533;-71
2023/05/03 02:57:55;;;;;;;6.10;4.97;;;9.80;99.90;;;9.04;100.00;101673.25;4131199;28;20030;-71
2023/05/03 02:59:56;;;;;;;6.40;4.60;;;9.80;99.90;;;8.96;100.00;101662.53;4119603;28;20089;-71
2023/05/03 03:01:57;;;;;;;6.88;4.93;;;9.70;99.90;;;9.01;100.00;101668.25;4122586;28;20030;-71
2023/05/03 03:03:58;;;;;;;8.32;5.25;;;9.80;99.90;;;9.02;100.00;101669.94;4129075;28;20519;-70
2023/05/03 03:05:59;;;;;;;12.70;5.22;;;9.70;99.90;;;8.95;100.00;101658.22;4123618;28;20023;-71
2023/05/03 03:08:00;;;;;;;6.90;5.25;;;9.70;99.90;;;8.97;100.00;101661.53;4135725;28;20033;-71
2023/05/03 03:10:00;;;;;;;7.00;4.93;;;9.70;99.90;;;8.95;100.00;101664.31;4122690;28;20106;-71
2023/05/03 03:12:02;;;;;;;6.60;4.72;;;9.70;99.90;;;8.93;100.00;101671.47;4135731;28;20030;-71
2023/05/03 03:14:03;;;;;;;8.52;5.28;;;9.70;99.90;;;8.90;100.00;101663.81;4128054;28;20491;-71
2023/05/03 03:16:08;;;;;;;8.07;4.78;;;9.60;99.90;;;8.86;100.00;101660.63;4135288;28;20045;-71
2023/05/03 03:18:09;;;;;;;8.23;5.68;;;9.60;99.90;;;8.80;100.00;101657.66;4135670;28;20522;-71
2023/05/03 03:20:11;;;;;;;10.85;6.10;;;9.60;99.90;;;8.78;100.00;101657.75;4135650;28;20038;-71
2023/05/03 03:22:12;;;;;;;9.20;5.70;;;9.50;99.90;;;8.83;100.00;101655.59;4119439;28;20043;-70
2023/05/03 03:24:14;;;;;;;11.32;6.15;;;9.60;99.90;;;8.84;100.00;101659.88;4135375;28;20022;-71
2023/05/03 03:26:15;;;;;;;9.20;6.15;;;9.50;99.90;;;8.81;100.00;101646.16;4119374;28;20512;-70
2023/05/03 03:28:16;;;;;;;9.30;6.50;;;9.50;99.90;;;8.79;100.00;101651.53;4120647;28;20038;-70
2023/05/03 03:30:17;;;;;;;8.60;5.50;;;9.50;99.90;;;8.67;100.00;101631.47;4135271;28;20529;-71
2023/05/03 03:32:18;;;;;;;9.52;5.40;;;9.50;99.90;;;8.73;100.00;101654.66;4119377;28;20598;-70
2023/05/03 03:34:18;;;;;;;7.85;5.35;;;9.50;99.90;;;8.69;100.00;101647.16;4135241;28;20096;-71
2023/05/03 03:36:19;;;;;;;8.52;5.63;;;9.50;99.90;;;8.63;100.00;101650.25;4119381;28;20506;-71
2023/05/03 03:38:20;;;;;;;9.32;6.13;;;9.40;99.90;;;8.72;100.00;101662.69;4135341;28;20042;-71
2023/05/03 03:40:21;;;;;;;8.48;5.68;;;9.40;99.90;;;8.66;100.00;101648.19;4120395;28;20056;-71
2023/05/03 03:42:24;;;;;;;7.18;5.60;;;9.40;99.90;;;8.58;100.00;101649.78;4118850;28;20031;-71
2023/05/03 03:44:25;;;;;;;8.70;5.65;;;9.40;99.90;;;8.53;100.00;101651.94;4128904;28;20026;-70
2023/05/03 03:46:26;;;;;;;8.68;6.47;;;9.30;99.90;;;8.52;100.00;101656.34;4118873;28;20046;-71
2023/05/03 03:48:27;;;;;;;7.50;5.78;;;9.30;99.90;;;8.44;100.00;101639.50;4118983;28;20034;-71
2023/05/03 03:50:28;;;;;;;9.55;6.63;;;9.20;99.90;;;8.51;100.00;101653.84;4119240;28;20027;-71
2023/05/03 03:52:29;;;;;;;7.22;5.88;;;9.20;99.90;;;8.46;100.00;101641.06;4123062;28;20022;-71
2023/05/03 03:54:30;;;;;;;9.60;6.13;;;9.20;99.90;;;8.36;100.00;101626.97;4143293;28;20100;-71
2023/05/03 03:56:31;;;;;;;8.70;6.50;;;9.20;99.90;;;8.40;100.00;101638.06;4122589;28;20058;-72
2023/05/03 03:58:32;;;;;;;8.02;5.78;;;9.20;99.90;;;8.36;100.00;101628.75;4116070;28;20094;-71
2023/05/03 04:00:36;;;;;;;11.50;7.07;;;9.20;99.90;;;8.45;100.00;101643.81;4121700;28;20041;-71
2023/05/03 04:02:36;;;;;;;10.35;6.80;;;9.20;99.90;;;8.38;100.00;101626.84;4151315;28;20113;-71
2023/05/03 04:04:37;;;;;;;13.27;7.20;;;9.20;99.90;;;8.50;100.00;101646.91;4127563;28;20478;-71
2023/05/03 04:06:38;;;;;;;9.52;6.45;;;9.20;99.90;;;8.45;100.00;101642.03;4134772;28;20030;-71
2023/05/03 04:08:39;;;;;;;8.68;6.03;;;9.20;99.90;;;8.45;100.00;101642.03;4136409;28;20076;-71
2023/05/03 04:10:40;;;;;;;9.50;6.45;;;9.20;99.90;;;8.58;100.00;101644.50;4134816;28;20528;-70
2023/05/03 04:12:41;;;;;;;8.45;5.97;;;9.30;99.90;;;8.59;100.00;101647.03;4136001;28;20026;-71
2023/05/03 04:14:42;;;;;;;9.18;5.88;;;9.30;99.90;;;8.58;100.00;101655.88;4120748;28;20034;-71
2023/05/03 04:16:43;;;;;;;9.32;6.57;;;9.30;99.90;;;8.56;100.00;101641.16;4120167;28;20023;-71
2023/05/03 04:18:44;;;;;;;10.52;7.25;;;9.30;99.90;;;8.51;100.00;101631.00;4134985;28;20030;-71
2023/05/03 04:20:45;;;;;;;9.27;5.75;;;9.30;99.90;;;8.57;100.00;101640.22;4119995;28;20034;-71
2023/05/03 04:22:46;;;;;;;10.38;7.07;;;9.40;99.90;;;8.63;100.00;101643.19;4134531;28;20030;-71
2023/05/03 04:24:46;;;;;;;9.32;6.57;;;9.40;99.90;;;8.63;100.00;101622.13;4120078;28;20069;-71
2023/05/03 04:26:50;;;;;;;9.90;6.18;;;9.40;99.90;;;8.64;100.00;101636.13;4120006;28;20031;-70
2023/05/03 04:28:50;;;;;;;8.15;6.00;;;9.40;99.90;;;8.64;100.00;101642.25;4119921;28;20026;-71
2023/05/03 04:30:52;;;;;;;10.05;6.50;;;9.40;99.90;;;8.65;100.00;101635.19;4134512;28;20042;-70
2023/05/03 04:32:54;;;;;;;10.93;6.53;;;9.40;99.90;;;8.62;100.00;101627.53;4121406;28;20086;-70
2023/05/03 04:34:55;;;;;;;10.80;6.95;;;9.40;99.90;;;8.65;100.00;101636.03;4129124;28;20031;-71
2023/05/03 04:36:56;;;;;;;9.48;7.60;;;9.40;99.90;;;8.61;100.00;101625.84;4119880;28;20038;-70
2023/05/03 04:38:57;;;;;;;10.45;6.05;;;9.40;99.90;;;8.60;100.00;101625.00;4134710;28;20081;-70
2023/05/03 04:40:58;;;;;;;12.48;6.75;;;9.40;99.90;;;8.66;100.00;101634.25;4134856;28;20057;-70
2023/05/03 04:42:59;;;;;;;11.63;6.90;;;9.40;99.90;;;8.62;100.00;101625.75;4128739;28;20031;-71
2023/05/03 04:45:02;;;;;;;13.10;7.45;;;9.40;99.90;;;8.62;100.00;101622.28;4118321;28;20114;-71
2023/05/03 04:47:03;;;;;;;8.43;6.30;;;9.40;99.90;;;8.72;100.00;101629.31;4134438;28;20507;-70
2023/05/03 04:49:05;;;;;;;13.32;7.22;;;9.40;99.90;;;8.68;100.00;101624.41;4121665;28;20030;-71
2023/05/03 04:51:06;;;;;;;9.45;6.82;;;9.40;99.90;;;8.62;100.00;101625.75;4134689;28;20034;-71
2023/05/03 04:53:07;;;;;;;13.98;7.68;;;9.40;99.90;;;8.61;100.00;101617.97;4150885;28;20510;-70
2023/05/03 04:55:08;;;;;;;9.25;6.70;;;9.40;99.90;;;8.58;100.00;101626.94;4134598;28;20030;-71
2023/05/03 04:57:09;;;;;;;10.88;7.13;;;9.40;99.90;;;8.62;100.00;101641.53;4134625;28;20026;-71
2023/05/03 04:59:10;;;;;;;10.55;6.88;;;9.40;99.90;;;8.60;100.00;101630.28;4112157;28;20590;-72
2023/05/03 05:01:11;;;;;;;10.20;7.00;;;9.40;99.90;;;8.65;100.00;101640.44;4127549;28;20048;-72
2023/05/03 05:03:12;;;;;;;10.18;6.70;;;9.40;99.90;;;8.64;100.00;101634.34;4135536;28;20128;-71
2023/05/03 05:05:13;;;;;;;11.30;6.60;;;9.40;99.90;;;8.68;100.00;101630.53;4134356;28;20122;-71
2023/05/03 05:07:14;;;;;;;12.40;7.25;;;9.40;99.90;;;8.78;100.00;101633.25;4134659;28;20030;-71
2023/05/03 05:09:27;;;;;;;12.00;6.88;;;9.50;99.90;;;8.78;100.00;101631.44;4134334;28;20034;-71
2023/05/03 05:11:28;;;;;;;10.15;7.13;;;9.50;99.90;;;8.85;100.00;101642.31;4134557;28;20030;-71
2023/05/03 05:13:30;;;;;;;12.43;7.07;;;9.50;99.90;;;8.90;100.00;101634.88;4135741;28;20556;-70
2023/05/03 05:15:31;;;;;;;11.27;7.07;;;9.60;99.90;;;8.94;100.00;101638.94;4118181;28;20039;-70
2023/05/03 05:17:31;;;;;;;12.85;7.82;;;9.60;99.90;;;8.95;100.00;101632.75;4129271;28;20074;-71
2023/05/03 05:19:32;;;;;;;13.98;7.28;;;9.60;99.90;;;8.98;100.00;101626.38;4135463;28;20034;-71
2023/05/03 05:21:33;;;;;;;10.68;7.07;;;9.70;99.90;;;9.01;100.00;101623.50;4135849;28;20505;-70
2023/05/03 05:23:35;;;;;;;11.52;7.60;;;9.70;99.90;;;9.05;100.00;101624.94;4134279;28;20038;-71
2023/05/03 05:25:35;;;;;;;10.05;7.30;;;9.70;99.90;;;9.12;100.00;101624.31;4136566;28;20026;-70
2023/05/03 05:27:36;;;;;;;13.90;7.43;;;9.80;99.90;;;9.13;100.00;101630.41;4121088;28;20035;-71
2023/05/03 05:29:37;;;;;;;12.57;7.63;;;9.80;99.90;;;9.16;100.00;101627.53;4126193;28;20027;-70
2023/05/03 05:31:38;;;;;;;10.88;6.78;;;9.90;99.90;;;9.18;100.00;101634.34;4137143;28;20466;-70
2023/05/03 05:33:39;;;;;;;10.77;6.25;;;9.90;99.90;;;9.18;100.00;101625.59;4131685;28;20122;-71
2023/05/03 05:35:40;;;;;;;15.57;7.22;;;9.90;99.90;;;9.23;100.00;101634.78;4137157;28;20489;-71
2023/05/03 05:37:41;;;;;;;9.27;6.43;;;9.90;99.90;;;9.22;100.00;101627.88;4138441;28;20034;-71
2023/05/03 05:39:42;;;;;;;11.93;6.32;;;9.90;99.90;;;9.25;100.00;101627.63;4137223;28;20513;-70
2023/05/03 05:41:42;;;;;;;11.48;6.80;;;9.90;99.90;;;9.32;100.00;101633.19;4137085;28;20146;-71
2023/05/03 05:43:44;;;;;;;9.55;6.85;;;10.00;99.90;;;9.37;100.00;101636.31;4127975;28;20034;-71
2023/05/03 05:45:45;;;;;;;13.63;8.20;;;10.00;99.90;;;9.42;100.00;101634.13;4136734;28;20046;-71
2023/05/03 05:47:46;;;;;;;11.48;7.18;;;10.00;99.90;;;9.40;100.00;101625.50;4136687;28;20033;-70
2023/05/03 05:49:47;;;;;;;11.77;7.57;;;10.10;99.90;;;9.44;100.00;101640.06;4127532;28;20027;-71
2023/05/03 05:51:47;;;;;;;12.98;7.40;;;10.10;99.90;;;9.54;100.00;101635.72;4125075;28;20030;-70
2023/05/03 05:53:48;;;;;;;11.13;7.07;;;10.20;99.90;;;9.55;100.00;101636.56;4122160;28;20027;-70
2023/05/03 05:55:49;;;;;;;10.80;6.60;;;10.20;99.90;;;9.60;100.00;101629.94;4122007;28;20073;-71
2023/05/03 05:57:50;;;;;;;11.82;7.15;;;10.30;99.90;;;9.57;100.00;101619.66;4121787;28;20038;-71
2023/05/03 05:59:51;;;;;;;11.32;7.55;;;10.30;99.90;;;9.65;100.00;101630.41;4120372;28;20053;-70
2023/05/03 06:01:52;;;;;;;11.10;7.15;;;10.30;99.90;;;9.67;100.00;101627.66;4120762;28;20023;-70
2023/05/03 06:03:54;;;;;;;11.20;8.25;;;10.40;99.90;;;9.75;100.00;101631.31;4136928;28;20157;-70
2023/05/03 06:05:55;;;;;;;15.20;8.13;;;10.40;99.90;;;9.79;100.00;101637.16;4124292;28;20023;-71
2023/05/03 06:07:55;;;;;;;9.48;5.90;;;10.50;99.90;;;9.80;100.00;101639.66;4134534;28;20038;-71
2023/05/03 06:09:56;;;;;;;13.65;7.00;;;10.50;99.90;;;9.86;100.00;101633.88;4137783;28;20018;-71
2023/05/03 06:11:57;;;;;;;12.48;7.40;;;10.50;99.90;;;9.88;100.00;101636.38;4137890;28;20030;-71
2023/05/03 06:13:58;;;;;;;12.32;7.05;;;10.50;99.90;;;9.94;100.00;101643.78;4136651;28;20022;-70
2023/05/03 06:15:59;;;;;;;12.68;8.15;;;10.60;99.90;;;9.93;100.00;101632.38;4136366;28;20044;-71
2023/05/03 06:18:00;;;;;;;12.52;7.22;;;10.60;99.90;;;9.94;100.00;101641.97;4137672;28;20022;-71
2023/05/03 06:20:03;;;;;;;12.25;7.35;;;10.60;99.90;;;10.01;100.00;101635.19;4136516;28;20108;-71
2023/05/03 06:22:04;;;;;;;16.33;7.93;;;10.70;99.90;;;10.11;100.00;101637.06;4128211;28;20058;-71
2023/05/03 06:24:05;;;;;;;12.38;7.78;;;10.70;99.90;;;10.19;100.00;101640.72;4121538;28;20034;-71
2023/05/03 06:26:07;;;;;;;11.55;7.38;;;10.80;99.90;;;10.24;100.00;101637.72;4136388;28;20076;-70
2023/05/03 06:28:08;;;;;;;15.88;7.20;;;10.80;99.90;;;10.29;100.00;101638.16;4121532;28;20071;-71
2023/05/03 06:30:09;;;;;;;10.60;6.85;;;10.90;99.90;;;10.32;100.00;101636.09;4124030;28;20483;-70
2023/05/03 06:32:10;;;;;;;11.27;7.85;;;11.00;99.90;;;10.43;100.00;101632.50;4136395;28;20029;-70
2023/05/03 06:34:11;;;;;;;9.32;6.53;;;11.00;99.90;;;10.43;100.00;101621.94;4136168;28;20034;-70
2023/05/03 06:36:12;;;;;;;13.52;7.72;;;11.10;99.90;;;10.59;100.00;101630.22;4120394;28;20081;-70
2023/05/03 06:38:13;;;;;;;13.30;6.40;;;11.20;99.90;;;10.69;100.00;101617.06;4136345;28;20463;-70
2023/05/03 06:40:14;;;;;;;12.73;8.23;;;11.30;99.90;;;10.69;100.00;101607.34;4136252;28;20041;-71
2023/05/03 06:42:15;;;;;;;15.60;7.72;;;11.30;99.90;;;10.83;100.00;101593.75;4126532;28;20018;-71
2023/05/03 06:44:16;;;;;;;10.82;6.65;;;11.40;99.90;;;10.96;100.00;101607.50;4119856;28;20493;-71
2023/05/03 06:46:17;;;;;;;7.72;6.18;;;11.50;99.90;;;11.02;100.00;101606.13;4121153;28;20046;-71
2023/05/03 06:48:20;;;;;;;10.20;6.28;;;11.50;99.90;;;11.05;100.00;101598.75;4121231;28;20023;-70
2023/05/03 06:50:23;;;;;;;12.05;7.32;;;11.60;99.90;;;11.09;100.00;101602.78;4136183;28;20022;-71
2023/05/03 06:52:24;;;;;;;14.63;7.70;;;11.70;99.90;;;11.13;100.00;101599.88;4124535;28;20045;-71
2023/05/03 06:54:25;;;;;;;10.70;7.05;;;11.70;99.90;;;11.17;100.00;101593.34;4129129;28;20018;-71
2023/05/03 06:56:26;;;;;;;12.45;7.53;;;11.80;99.90;;;11.27;100.00;101602.94;4121060;28;20027;-71
2023/05/03 06:58:26;;;;;;;11.82;7.80;;;11.90;99.90;;;11.29;100.00;101595.69;4121083;28;20506;-71
2023/05/03 07:00:28;;;;;;;10.88;6.97;;;11.90;99.90;;;11.37;100.00;101600.28;4130492;28;20073;-71
2023/05/03 07:02:29;;;;;;;12.30;6.75;;;12.00;99.90;;;11.46;100.00;101594.16;4121017;28;20030;-71
2023/05/03 07:04:30;;;;;;;10.93;7.63;;;12.10;99.90;;;11.54;100.00;101596.94;4135821;28;20027;-71
2023/05/03 07:06:31;;;;;;;11.45;7.07;;;12.10;99.90;;;11.62;100.00;101597.88;4124588;28;20029;-70
2023/05/03 07:08:32;;;;;;;9.18;6.45;;;12.20;99.90;;;11.66;100.00;101599.28;4152071;28;20026;-70
2023/05/03 07:10:33;;;;;;;10.25;6.93;;;12.30;99.90;;;11.70;100.00;101586.66;4130385;28;20102;-71
2023/05/03 07:12:34;;;;;;;11.70;7.80;;;12.40;99.90;;;11.81;100.00;101586.47;4135926;28;20038;-71
2023/05/03 07:14:35;;;;;;;8.77;6.45;;;12.50;99.90;;;11.87;100.00;101583.25;4135493;28;20019;-71
2023/05/03 07:16:36;;;;;;;12.48;6.53;;;12.50;99.90;;;11.93;100.00;101587.13;4135707;28;20477;-71
2023/05/03 07:18:37;;;;;;;11.43;6.65;;;12.60;99.90;;;12.06;100.00;101583.19;4119575;28;20503;-71
2023/05/03 07:20:38;;;;;;;8.10;6.30;;;12.70;99.90;;;12.14;100.00;101582.47;4124844;28;20041;-71
2023/05/03 07:22:39;;;;;;;10.85;7.25;;;12.80;99.90;;;12.19;100.00;101588.97;4135382;28;20034;-71
2023/05/03 07:24:39;;;;;;;13.55;8.38;;;12.80;99.90;;;12.23;100.00;101578.09;4135617;28;20034;-71
2023/05/03 07:26:40;;;;;;;11.52;6.93;;;12.90;99.90;;;12.33;100.00;101578.91;4135497;28;20026;-71
2023/05/03 07:28:41;;;;;;;8.35;6.45;;;13.00;99.90;;;12.40;100.00;101578.16;4120594;28;20035;-71
2023/05/03 07:30:42;;;;;;;11.73;7.03;;;13.00;99.90;;;12.42;100.00;101562.16;4121939;28;20028;-71
2023/05/03 07:32:43;;;;;;;10.50;7.03;;;13.10;99.90;;;12.54;100.00;101574.19;4119345;28;20027;-71
2023/05/03 07:34:44;;;;;;;11.15;6.45;;;13.20;99.90;;;12.62;100.00;101572.47;4120690;28;20034;-71
2023/05/03 07:36:45;;;;;;;12.40;6.57;;;13.20;99.90;;;12.70;100.00;101564.59;4120645;28;20119;-71
2023/05/03 07:38:46;;;;;;;12.05;7.35;;;13.40;99.90;;;12.76;100.00;101561.34;4119337;28;20027;-71
2023/05/03 07:40:46;;;;;;;12.02;6.50;;;13.40;99.90;;;12.84;100.00;101555.34;4133103;28;20502;-71
2023/05/03 07:42:47;;;;;;;11.32;7.40;;;13.50;99.90;;;12.94;100.00;101552.59;4135231;28;20034;-71
2023/05/03 07:44:48;;;;;;;11.45;6.45;;;13.60;99.90;;;13.06;100.00;101552.22;4120130;28;20479;-71
2023/05/03 07:46:49;;;;;;;10.32;6.72;;;13.70;99.90;;;13.18;100.00;101550.19;4134928;28;20046;-70
2023/05/03 07:48:50;;;;;;;9.75;6.65;;;13.80;99.90;;;13.26;100.00;101559.03;4120127;28;20030;-71
2023/05/03 07:50:51;;;;;;;9.77;6.70;;;13.90;99.90;;;13.40;100.00;101555.00;4135084;28;20037;-71
2023/05/03 07:52:51;;;;;;;8.68;6.30;;;14.00;99.90;;;13.51;98.66;101553.91;4120511;28;20402;-71
2023/05/03 07:54:52;;;;;;;9.05;5.82;;;14.10;99.90;;;13.65;98.52;101559.47;4134908;28;20026;-71
2023/05/03 07:56:53;;;;;;;8.20;5.78;;;14.30;99.90;;;13.77;97.85;101546.78;4120067;28;20035;-71
2023/05/03 07:58:54;;;;;;;8.23;6.13;;;14.30;99.90;;;13.90;97.14;101554.31;4119001;28;20027;-70
2023/05/03 08:00:55;;;;;;;8.43;6.05;;;14.50;99.90;;;13.97;95.59;101544.75;4144276;28;20437;-71
2023/05/03 08:02:56;;;;;;;8.85;6.28;;;14.60;99.90;;;14.07;95.16;101548.94;4128839;28;20030;-71
2023/05/03 08:04:57;;;;;;;7.78;6.10;;;14.60;99.90;;;14.10;93.45;101543.31;4123228;28;20470;-71
2023/05/03 08:07:01;;;;;;;9.93;5.60;;;14.70;99.90;;;14.19;93.67;101533.56;4121589;28;20022;-71
2023/05/03 08:09:03;;;;;;;8.07;6.70;;;14.80;99.90;;;14.23;94.12;101540.22;4134718;28;20110;-71
2023/05/03 08:11:04;;;;;;;7.82;6.07;;;14.90;99.90;;;14.25;92.19;101536.41;4123991;28;20023;-71
2023/05/03 08:13:05;;;;;;;8.45;6.15;;;14.90;99.90;;;14.32;91.59;101532.16;4119956;28;20035;-71
2023/05/03 08:15:07;;;;;;;9.38;6.97;;;14.90;99.90;;;14.39;89.42;101532.34;4119963;28;20554;-71
2023/05/03 08:17:08;;;;;;;10.00;5.82;;;15.00;99.90;;;14.45;88.99;101525.56;4120314;28;20039;-72
2023/05/03 08:19:09;;;;;;;10.55;6.18;;;15.10;99.90;;;14.51;88.31;101525.75;4120111;28;20031;-71
2023/05/03 08:21:11;;;;;;;9.23;6.43;;;15.20;99.90;;;14.64;87.60;101519.94;4119883;28;20031;-71
2023/05/03 08:23:12;;;;;;;7.93;5.60;;;15.20;99.90;;;14.73;86.52;101513.66;4119806;28;20034;-71
2023/05/03 08:25:16;;;;;;;8.55;5.55;;;15.30;99.90;;;14.79;86.66;101518.31;4120024;28;20118;-71
2023/05/03 08:27:17;;;;;;;13.38;7.05;;;15.40;99.90;;;14.93;85.80;101499.88;4134608;28;20398;-70